Time;durP1;ratioP1;P1;durP2;ratioP2;P2;SDS_P1;SDS_P2;PMS_P1;PMS_P2;Temp;Humidity;BMP_temperature;BMP_pressure;BME280_temperature;BME280_humidity;BME280_pressure;Samples;Min_cycle;Max_cycle;Signal;HPM_P1;HPM_P2
2023/03/29 03:56:24;;;;;;;2.20;2.10;;;4.60;99.90;;;;;;5707312;23;20681;-66
2023/03/29 03:58:51;;;;;;;2.10;2.00;;;4.70;99.90;;;;;;4974831;28;20242;-66
2023/03/29 04:01:18;;;;;;;1.70;1.70;;;4.70;99.90;;;;;;4974957;28;20208;-66
2023/03/29 04:03:45;;;;;;;1.90;1.80;;;4.80;99.90;;;;;;4974934;28;20203;-66
2023/03/29 04:06:11;;;;;;;1.75;1.65;;;4.80;99.90;;;;;;4974705;28;20223;-66
2023/03/29 04:08:39;;;;;;;2.03;1.92;;;4.80;99.90;;;;;;4975296;28;20219;-65
2023/03/29 04:11:06;;;;;;;1.55;1.55;;;4.80;99.90;;;;;;4974967;28;20209;-65
2023/03/29 04:13:34;;;;;;;1.90;1.80;;;4.80;99.90;;;;;;4974448;28;20552;-65
2023/03/29 04:16:02;;;;;;;1.67;1.58;;;4.70;99.90;;;;;;4974376;28;20318;-65
2023/03/29 04:18:29;;;;;;;1.30;1.30;;;4.70;99.90;;;;;;4974797;28;20199;-65
2023/03/29 04:20:56;;;;;;;1.88;1.70;;;4.70;99.90;;;;;;4974707;28;20237;-65
2023/03/29 04:23:22;;;;;;;1.25;1.25;;;4.70;99.90;;;;;;4974799;28;20264;-65
2023/03/29 04:25:49;;;;;;;1.30;1.30;;;4.60;99.90;;;;;;4974592;28;20230;-65
2023/03/29 04:28:16;;;;;;;1.40;1.40;;;4.60;99.90;;;;;;4974830;28;20203;-65
2023/03/29 04:30:45;;;;;;;1.38;1.38;;;4.60;99.90;;;;;;4978638;28;20191;-64
2023/03/29 04:33:12;;;;;;;1.17;1.17;;;4.60;99.90;;;;;;4978234;28;20253;-65
2023/03/29 04:35:38;;;;;;;1.52;1.40;;;4.50;99.90;;;;;;4978546;28;20607;-65
2023/03/29 04:38:08;;;;;;;1.73;1.58;;;4.50;99.90;;;;;;4978550;28;20211;-65
2023/03/29 04:40:35;;;;;;;1.40;1.40;;;4.50;99.90;;;;;;4978702;28;20242;-65
2023/03/29 04:43:02;;;;;;;1.30;1.20;;;4.50;99.90;;;;;;4978670;28;20199;-65
2023/03/29 04:45:29;;;;;;;1.17;1.17;;;4.50;99.90;;;;;;4978387;28;20203;-65
2023/03/29 04:47:58;;;;;;;1.00;1.00;;;4.50;99.90;;;;;;4978452;28;20215;-65
2023/03/29 04:50:25;;;;;;;1.20;1.20;;;4.40;99.90;;;;;;4978280;28;20230;-64
2023/03/29 04:52:52;;;;;;;1.30;1.30;;;4.40;99.90;;;;;;4977947;28;20667;-65
2023/03/29 04:55:19;;;;;;;1.23;1.23;;;4.40;99.90;;;;;;4978137;28;20230;-65
2023/03/29 04:57:45;;;;;;;1.25;1.25;;;4.40;99.90;;;;;;4977983;28;20552;-65
2023/03/29 05:00:14;;;;;;;1.45;1.45;;;4.40;99.90;;;;;;4978364;28;20203;-65
2023/03/29 05:02:42;;;;;;;1.38;1.30;;;4.50;99.90;;;;;;4978008;28;20203;-65
2023/03/29 05:05:11;;;;;;;1.42;1.33;;;4.50;99.90;;;;;;4977891;28;20238;-66
2023/03/29 05:07:38;;;;;;;1.73;1.63;;;4.50;99.90;;;;;;4977985;28;20638;-65
2023/03/29 05:10:06;;;;;;;1.30;1.20;;;4.50;99.90;;;;;;4977830;28;20223;-66
2023/03/29 05:12:33;;;;;;;1.40;1.40;;;4.50;99.90;;;;;;4977844;28;20290;-66
2023/03/29 05:15:00;;;;;;;1.40;1.30;;;4.50;99.90;;;;;;4977770;28;20200;-66
2023/03/29 09:59:23;;;;;;;1.30;1.20;;;14.60;38.60;;;;;;5815771;23;20220;-67
2023/03/29 10:01:51;;;;;;;1.00;0.90;;;14.90;38.00;;;;;;4976714;28;20211;-67
2023/03/29 10:04:20;;;;;;;0.90;0.90;;;14.90;38.60;;;;;;4976891;28;20211;-67
2023/03/29 10:06:49;;;;;;;1.00;1.00;;;15.00;38.40;;;;;;4976898;28;20203;-67
2023/03/29 10:09:18;;;;;;;1.83;0.90;;;15.00;38.20;;;;;;4976708;28;20227;-67
2023/03/29 10:11:49;;;;;;;0.70;0.70;;;15.10;37.50;;;;;;4977299;28;20207;-65
2023/03/29 10:14:19;;;;;;;3.28;0.70;;;15.10;37.90;;;;;;4976863;28;20195;-65
2023/03/29 10:16:46;;;;;;;0.70;0.70;;;14.90;36.50;;;;;;4976701;28;20203;-65
2023/03/29 10:19:21;;;;;;;1.13;0.90;;;14.80;37.60;;;;;;4976139;28;20257;-65
2023/03/29 10:21:49;;;;;;;3.38;1.00;;;14.70;37.00;;;;;;4976170;28;20558;-65
2023/03/29 10:24:18;;;;;;;1.33;1.23;;;14.40;37.70;;;;;;4976419;28;20203;-65
2023/03/29 10:26:46;;;;;;;0.80;0.80;;;14.30;37.60;;;;;;4976325;28;20253;-65
2023/03/29 10:29:13;;;;;;;1.08;0.90;;;14.30;38.90;;;;;;4976268;28;20224;-65
2023/03/29 10:31:41;;;;;;;1.50;0.90;;;14.30;38.20;;;;;;4977244;28;20210;-65
2023/03/29 10:34:13;;;;;;;1.67;1.08;;;14.30;37.60;;;;;;4976707;28;20200;-65
2023/03/29 10:36:45;;;;;;;3.97;1.10;;;14.20;37.10;;;;;;4976589;28;20192;-65
2023/03/29 10:39:14;;;;;;;0.93;0.85;;;14.10;36.70;;;;;;4976123;28;20230;-65
2023/03/29 10:41:42;;;;;;;0.50;0.50;;;14.10;38.60;;;;;;4976150;28;20234;-65
2023/03/29 10:44:26;;;;;;;0.75;0.75;;;14.20;38.60;;;;;;4976032;28;20290;-66
2023/03/29 10:46:53;;;;;;;1.38;0.90;;;14.30;37.60;;;;;;4975979;28;20188;-65
2023/03/29 10:49:21;;;;;;;0.90;0.90;;;14.30;37.60;;;;;;4976239;28;20662;-65
2023/03/29 10:51:50;;;;;;;3.30;1.33;;;14.30;37.60;;;;;;4976219;28;20207;-65
2023/03/29 10:54:20;;;;;;;0.77;0.75;;;14.30;37.10;;;;;;4976275;28;20207;-64
2023/03/29 10:56:50;;;;;;;1.05;0.82;;;14.10;37.00;;;;;;4976077;28;20191;-65
2023/03/29 10:59:26;;;;;;;2.80;0.82;;;14.00;38.60;;;;;;4975899;28;20223;-65
2023/03/29 11:02:07;;;;;;;2.20;1.00;;;14.10;38.10;;;;;;4975744;28;20222;-64
2023/03/29 11:04:42;;;;;;;0.85;0.80;;;14.10;39.20;;;;;;4976693;28;20258;-65
2023/03/29 11:07:32;;;;;;;0.88;0.80;;;14.30;38.80;;;;;;4975911;28;20223;-65
2023/03/29 11:10:23;;;;;;;1.45;0.85;;;14.20;38.60;;;;;;4968821;28;20236;-65
2023/03/29 11:12:56;;;;;;;0.55;0.52;;;14.00;38.40;;;;;;4975643;28;20194;-65
2023/03/29 11:15:36;;;;;;;0.77;0.52;;;14.00;39.40;;;;;;4975611;28;20187;-65
2023/03/29 11:18:17;;;;;;;2.45;0.77;;;14.00;40.20;;;;;;4975504;28;20274;-66
2023/03/29 11:20:49;;;;;;;2.78;0.95;;;14.00;40.40;;;;;;4975807;28;20203;-65
2023/03/29 11:23:30;;;;;;;1.42;0.80;;;14.00;39.80;;;;;;4975960;28;20195;-65
2023/03/29 11:26:07;;;;;;;0.70;0.70;;;14.10;40.10;;;;;;4975374;28;20532;-65
2023/03/29 11:28:40;;;;;;;1.35;0.90;;;14.20;40.50;;;;;;4975315;28;20254;-65
2023/03/29 11:31:16;;;;;;;0.57;0.57;;;14.40;40.70;;;;;;4976280;28;20214;-65
2023/03/29 11:33:55;;;;;;;1.05;0.80;;;14.50;38.80;;;;;;4978247;28;20191;-65
2023/03/29 11:36:30;;;;;;;0.73;0.73;;;14.60;36.70;;;;;;4983438;28;20187;-65
2023/03/29 11:39:05;;;;;;;2.20;0.60;;;14.70;36.10;;;;;;4980208;28;20227;-65
2023/03/29 11:41:38;;;;;;;0.50;0.50;;;14.60;35.30;;;;;;4975390;28;20190;-65
2023/03/29 11:44:09;;;;;;;1.13;0.63;;;14.60;35.60;;;;;;4975250;28;20198;-66
2023/03/29 11:46:40;;;;;;;1.02;0.60;;;14.60;35.50;;;;;;4975069;28;20230;-65
2023/03/29 11:49:14;;;;;;;0.82;0.52;;;14.70;35.30;;;;;;4974116;28;20777;-65
2023/03/29 11:51:45;;;;;;;0.52;0.50;;;14.80;34.70;;;;;;4975826;28;20538;-65
2023/03/29 11:54:20;;;;;;;0.45;0.45;;;15.00;34.30;;;;;;4975097;28;20188;-65
2023/03/29 11:56:51;;;;;;;1.10;1.05;;;15.30;34.70;;;;;;4975007;28;20191;-65
2023/03/29 11:59:24;;;;;;;0.68;0.57;;;15.50;34.50;;;;;;4975090;28;20223;-65
2023/03/29 12:01:55;;;;;;;1.27;0.88;;;15.70;33.70;;;;;;4974858;28;20278;-65
2023/03/29 12:04:28;;;;;;;0.55;0.55;;;15.80;33.20;;;;;;4974713;28;20191;-64
2023/03/29 12:07:05;;;;;;;3.00;0.68;;;15.90;33.50;;;;;;4974428;28;20532;-65
2023/03/29 12:09:38;;;;;;;2.35;0.50;;;16.00;34.00;;;;;;4973892;28;20660;-65
2023/03/29 12:12:10;;;;;;;0.95;0.70;;;16.20;34.70;;;;;;4973982;28;20196;-65
2023/03/29 12:14:54;;;;;;;0.80;0.75;;;16.40;34.50;;;;;;4974366;28;20188;-65
2023/03/29 12:17:27;;;;;;;10.10;1.38;;;16.60;34.50;;;;;;4973959;28;20199;-65
2023/03/29 12:20:03;;;;;;;4.05;0.95;;;16.60;35.10;;;;;;4973869;28;20219;-65
2023/03/29 12:22:30;;;;;;;2.92;0.70;;;16.60;34.50;;;;;;4973934;28;20242;-65
2023/03/29 12:24:59;;;;;;;1.23;0.65;;;16.60;33.20;;;;;;4973890;28;20203;-64
2023/03/29 12:27:30;;;;;;;2.67;0.60;;;16.50;31.10;;;;;;4973686;28;20230;-64
2023/03/29 12:30:23;;;;;;;2.55;0.60;;;16.50;31.10;;;;;;4973558;28;20228;-65
2023/03/29 12:33:16;;;;;;;1.85;0.52;;;16.60;30.40;;;;;;4973768;28;20198;-65
2023/03/29 12:35:52;;;;;;;2.72;0.60;;;16.60;30.60;;;;;;4973481;28;20245;-65
2023/03/29 12:38:21;;;;;;;0.60;0.50;;;16.60;30.00;;;;;;4973657;28;20198;-65
2023/03/29 12:40:55;;;;;;;4.20;0.70;;;16.70;30.20;;;;;;4973512;28;20206;-65
2023/03/29 12:43:25;;;;;;;0.50;0.50;;;16.70;29.70;;;;;;4973288;28;20559;-65
2023/03/29 12:45:55;;;;;;;1.75;0.80;;;16.70;30.20;;;;;;4973622;28;20191;-65
2023/03/29 12:48:25;;;;;;;1.40;0.75;;;16.70;29.70;;;;;;4973485;28;20210;-65
2023/03/29 12:50:55;;;;;;;2.85;0.80;;;16.80;30.00;;;;;;4974379;28;20614;-65
2023/03/29 12:53:24;;;;;;;2.30;0.70;;;16.90;29.80;;;;;;4976928;28;20194;-65
2023/03/29 12:56:08;;;;;;;2.25;0.60;;;17.00;30.00;;;;;;4976836;28;20200;-65
2023/03/29 12:58:50;;;;;;;1.08;0.47;;;17.20;30.50;;;;;;4976920;28;20238;-65
2023/03/29 13:01:26;;;;;;;0.63;0.63;;;17.30;30.40;;;;;;4941769;28;1025139;-65
2023/03/29 13:03:57;;;;;;;0.77;0.70;;;17.40;30.60;;;;;;4978150;28;20219;-65
2023/03/29 13:06:30;;;;;;;1.92;0.60;;;17.60;32.00;;;;;;4978129;28;20214;-65
2023/03/29 13:09:02;;;;;;;2.40;0.73;;;17.80;30.70;;;;;;4977549;28;20736;-66
2023/03/29 13:11:38;;;;;;;1.48;0.80;;;17.90;30.80;;;;;;4977822;28;20214;-64
2023/03/29 13:14:14;;;;;;;0.63;0.63;;;18.00;30.90;;;;;;4978108;28;20654;-66
2023/03/29 13:16:42;;;;;;;1.05;0.60;;;18.10;31.20;;;;;;4978719;28;20198;-65
2023/03/29 13:19:23;;;;;;;0.98;0.70;;;18.00;31.60;;;;;;4977655;28;20226;-65
2023/03/29 13:22:02;;;;;;;1.60;0.85;;;17.90;31.10;;;;;;4977827;28;20191;-65
2023/03/29 13:24:52;;;;;;;1.95;0.98;;;17.70;31.80;;;;;;4977999;28;20187;-65
2023/03/29 13:27:30;;;;;;;1.67;0.82;;;17.70;32.60;;;;;;4977611;28;20202;-65
2023/03/29 13:30:10;;;;;;;3.50;1.00;;;17.60;32.70;;;;;;4977403;28;20264;-65
2023/03/29 13:32:47;;;;;;;1.83;1.00;;;17.50;32.40;;;;;;4977462;28;20242;-65
2023/03/29 13:35:28;;;;;;;1.17;0.82;;;17.30;32.50;;;;;;4977558;28;20195;-65
2023/03/29 13:38:04;;;;;;;0.75;0.75;;;17.30;33.50;;;;;;4977514;28;20689;-66
2023/03/29 13:40:43;;;;;;;0.88;0.65;;;17.30;33.80;;;;;;4977153;28;20638;-66
2023/03/29 13:43:22;;;;;;;4.57;0.70;;;17.50;34.00;;;;;;4977060;28;20635;-65
2023/03/29 13:46:05;;;;;;;4.25;0.70;;;17.40;33.40;;;;;;4977262;28;20187;-66
2023/03/29 13:48:47;;;;;;;1.70;1.00;;;17.40;34.00;;;;;;4977214;28;20223;-66
2023/03/29 13:51:31;;;;;;;0.70;0.70;;;17.40;33.60;;;;;;4977837;28;20389;-66
2023/03/29 13:54:02;;;;;;;1.05;0.70;;;17.30;34.00;;;;;;4977480;28;20622;-66
2023/03/29 13:56:34;;;;;;;0.80;0.70;;;17.50;34.60;;;;;;4977032;28;20267;-66
2023/03/29 13:59:09;;;;;;;3.92;0.90;;;17.60;34.40;;;;;;4977130;28;20226;-66
2023/03/29 14:01:42;;;;;;;1.17;1.08;;;17.70;33.80;;;;;;4976572;28;20628;-66
2023/03/29 14:04:15;;;;;;;1.55;0.80;;;17.70;33.80;;;;;;4976722;28;20697;-66
2023/03/29 14:06:47;;;;;;;2.15;0.82;;;17.80;33.50;;;;;;4976786;28;20245;-64
2023/03/29 14:09:18;;;;;;;2.53;0.93;;;17.90;33.10;;;;;;4976884;28;20227;-64
2023/03/29 14:11:46;;;;;;;1.92;0.88;;;17.90;33.90;;;;;;4976907;28;20309;-64
2023/03/29 14:14:16;;;;;;;1.02;0.90;;;17.90;33.70;;;;;;4976876;28;20210;-64
2023/03/29 14:16:43;;;;;;;2.83;0.60;;;17.80;33.80;;;;;;4977487;28;20199;-64
2023/03/29 14:19:15;;;;;;;2.13;0.98;;;17.80;34.80;;;;;;4976542;28;20219;-64
2023/03/29 14:21:43;;;;;;;3.40;0.80;;;17.80;34.30;;;;;;4976639;28;20250;-64
2023/03/29 14:24:12;;;;;;;0.90;0.70;;;17.70;34.80;;;;;;4976564;28;20207;-65
2023/03/29 14:26:43;;;;;;;2.30;0.80;;;17.70;35.40;;;;;;4976446;28;20230;-64
2023/03/29 14:29:10;;;;;;;1.80;0.75;;;17.70;35.40;;;;;;4976397;28;20325;-65
2023/03/29 14:31:40;;;;;;;3.90;0.80;;;17.70;35.40;;;;;;4976000;28;20817;-64
2023/03/29 14:34:11;;;;;;;2.92;0.73;;;17.60;35.00;;;;;;4976128;28;20666;-65
2023/03/29 14:36:39;;;;;;;2.50;0.80;;;17.50;34.90;;;;;;4976366;28;20191;-64
2023/03/29 14:39:12;;;;;;;6.65;0.90;;;17.40;35.10;;;;;;4976281;28;20234;-65
2023/03/29 14:41:39;;;;;;;3.10;1.10;;;17.40;34.80;;;;;;4976636;28;20614;-65
2023/03/29 14:44:07;;;;;;;2.95;1.30;;;17.30;35.00;;;;;;4976524;28;20207;-65
2023/03/29 14:46:35;;;;;;;2.17;1.10;;;17.30;35.80;;;;;;4976125;28;20203;-65
2023/03/29 14:49:05;;;;;;;3.58;1.27;;;17.20;35.60;;;;;;4976317;28;20273;-66
2023/03/29 14:51:31;;;;;;;3.03;1.10;;;17.20;36.00;;;;;;4976134;28;20210;-67
2023/03/29 14:54:00;;;;;;;7.70;1.50;;;17.10;35.90;;;;;;4976072;28;20203;-67
2023/03/29 14:56:27;;;;;;;2.15;1.42;;;17.00;36.20;;;;;;4975916;28;20211;-67
2023/03/29 14:58:55;;;;;;;3.42;1.10;;;17.00;36.50;;;;;;4975854;28;20227;-67
2023/03/29 15:01:24;;;;;;;4.13;1.17;;;16.90;35.80;;;;;;4975589;28;20207;-66
2023/03/29 15:03:55;;;;;;;2.90;0.73;;;16.90;36.70;;;;;;4975781;28;20203;-66
2023/03/29 15:06:24;;;;;;;2.75;1.13;;;16.90;37.00;;;;;;4975836;28;20614;-66
2023/03/29 15:08:51;;;;;;;1.77;1.10;;;17.00;36.90;;;;;;4975500;28;20314;-66
2023/03/29 15:11:20;;;;;;;4.30;0.80;;;16.90;36.80;;;;;;4975508;28;20266;-66
2023/03/29 15:13:49;;;;;;;7.40;1.00;;;16.80;36.50;;;;;;4974722;28;20254;-67
2023/03/29 15:16:20;;;;;;;1.88;1.00;;;16.70;37.20;;;;;;4975549;28;20214;-65
2023/03/29 15:18:50;;;;;;;2.58;0.85;;;16.70;37.50;;;;;;4976141;28;20245;-65
2023/03/29 15:21:20;;;;;;;1.70;1.25;;;16.70;37.90;;;;;;4975644;28;20557;-65
2023/03/29 15:23:52;;;;;;;1.45;1.02;;;16.70;38.30;;;;;;4975984;28;20210;-66
2023/03/29 15:26:22;;;;;;;1.92;1.20;;;16.80;38.70;;;;;;4975142;28;20187;-66
2023/03/29 15:28:54;;;;;;;3.28;1.00;;;16.80;37.30;;;;;;4975252;28;20230;-65
2023/03/29 15:31:26;;;;;;;6.35;1.58;;;16.80;37.30;;;;;;4975147;28;20211;-64
2023/03/29 15:34:02;;;;;;;2.80;1.05;;;16.70;37.00;;;;;;4975308;28;20219;-64
2023/03/29 15:36:30;;;;;;;5.55;1.38;;;16.70;37.00;;;;;;4976001;28;20187;-66
2023/03/29 15:38:59;;;;;;;2.78;1.00;;;16.60;37.10;;;;;;4975238;28;20234;-65
2023/03/29 15:41:27;;;;;;;4.70;1.42;;;16.60;37.20;;;;;;4975234;28;20211;-65
2023/03/29 15:43:54;;;;;;;5.53;1.30;;;16.50;37.10;;;;;;4975010;28;20211;-66
2023/03/29 15:46:21;;;;;;;7.15;1.40;;;16.50;37.80;;;;;;4974937;28;20225;-66
2023/03/29 15:48:47;;;;;;;4.90;1.10;;;16.40;38.10;;;;;;4974907;28;20302;-66
2023/03/29 15:51:14;;;;;;;5.78;1.25;;;16.40;37.90;;;;;;4974925;28;20226;-66
2023/03/29 15:53:42;;;;;;;6.15;1.17;;;16.30;38.20;;;;;;4974624;28;20693;-67
2023/03/29 15:56:15;;;;;;;3.78;1.17;;;16.30;38.40;;;;;;4974916;28;20211;-67
2023/03/29 15:58:42;;;;;;;8.73;1.90;;;16.20;38.50;;;;;;4974878;28;20242;-67
2023/03/29 16:01:22;;;;;;;2.00;1.10;;;16.20;39.20;;;;;;4975777;28;20261;-68
2023/03/29 16:03:49;;;;;;;2.20;1.50;;;16.20;39.20;;;;;;4976896;28;20215;-69
2023/03/29 16:06:17;;;;;;;3.97;1.20;;;16.10;39.10;;;;;;4975254;28;20207;-68
2023/03/29 16:08:43;;;;;;;6.25;1.33;;;16.10;39.10;;;;;;4977166;28;20579;-68
2023/03/29 16:11:11;;;;;;;7.47;1.42;;;16.00;39.00;;;;;;4981221;28;20223;-69
2023/03/29 16:13:38;;;;;;;6.78;1.30;;;16.00;40.10;;;;;;4974949;28;20665;-66
2023/03/29 16:16:06;;;;;;;1.20;1.10;;;15.90;39.90;;;;;;4974482;28;20574;-66
2023/03/29 16:18:32;;;;;;;0.88;0.88;;;15.80;39.90;;;;;;4974646;28;20257;-67
2023/03/29 16:20:59;;;;;;;2.40;0.77;;;15.80;40.10;;;;;;4974560;28;20199;-67
2023/03/29 16:23:26;;;;;;;2.42;0.80;;;15.80;40.30;;;;;;4974597;28;20206;-67
2023/03/29 16:25:52;;;;;;;3.15;0.85;;;15.70;40.50;;;;;;4977603;28;20213;-66
2023/03/29 16:28:21;;;;;;;1.55;0.77;;;15.70;40.80;;;;;;4978524;28;20199;-66
2023/03/29 16:30:48;;;;;;;1.10;0.80;;;15.70;40.40;;;;;;4978525;28;20237;-66
2023/03/29 16:33:15;;;;;;;1.95;0.70;;;15.60;40.20;;;;;;4978634;28;20207;-65
2023/03/29 16:35:41;;;;;;;3.33;1.02;;;15.50;40.80;;;;;;4978546;28;20262;-65
2023/03/29 16:38:08;;;;;;;2.33;1.15;;;15.50;40.60;;;;;;4978681;28;20225;-65
2023/03/29 16:40:35;;;;;;;2.88;1.10;;;15.40;41.00;;;;;;4978613;28;20555;-65
2023/03/29 16:43:02;;;;;;;3.10;1.02;;;15.40;41.30;;;;;;4978463;28;20210;-65
2023/03/29 16:45:30;;;;;;;1.15;1.10;;;15.30;41.20;;;;;;4978364;28;20207;-66
2023/03/29 16:47:57;;;;;;;2.50;0.85;;;15.30;41.30;;;;;;4979445;28;20222;-66
2023/03/29 16:50:24;;;;;;;0.90;0.73;;;15.20;41.30;;;;;;4978420;28;20227;-66
2023/03/29 16:52:51;;;;;;;1.13;1.00;;;15.20;42.00;;;;;;4978334;28;20313;-66
2023/03/29 16:55:18;;;;;;;0.80;0.80;;;15.20;42.50;;;;;;4978141;28;20207;-66
2023/03/29 16:57:46;;;;;;;1.77;0.90;;;15.10;42.70;;;;;;4977911;28;20747;-66
2023/03/29 17:00:15;;;;;;;2.05;1.10;;;15.10;43.60;;;;;;4978109;28;20223;-66
2023/03/29 17:02:43;;;;;;;2.33;1.30;;;15.00;45.20;;;;;;4977687;28;20246;-66
2023/03/29 17:05:11;;;;;;;2.75;2.05;;;14.90;47.00;;;;;;4978823;28;20643;-66
2023/03/29 17:07:38;;;;;;;4.07;2.25;;;14.90;48.80;;;;;;4978041;28;20302;-65
2023/03/29 17:10:05;;;;;;;2.97;2.70;;;14.80;50.10;;;;;;4977714;28;20293;-65
2023/03/29 17:12:32;;;;;;;4.85;2.70;;;14.80;52.60;;;;;;4978018;28;20270;-66
2023/03/29 17:14:59;;;;;;;1.77;1.67;;;14.60;52.30;;;;;;4977805;28;20199;-66
2023/03/29 17:17:26;;;;;;;2.00;1.30;;;14.50;52.20;;;;;;4977751;28;20211;-65
2023/03/29 17:19:54;;;;;;;2.53;1.67;;;14.40;54.40;;;;;;4978063;28;20223;-65
2023/03/29 17:22:21;;;;;;;2.05;1.52;;;14.30;56.70;;;;;;4978059;28;20203;-65
2023/03/29 17:24:48;;;;;;;1.30;1.20;;;14.20;57.20;;;;;;4978345;28;20195;-65
2023/03/29 17:27:15;;;;;;;1.23;1.10;;;14.20;57.60;;;;;;4978131;28;20203;-66
2023/03/29 17:29:42;;;;;;;1.10;0.95;;;14.00;58.80;;;;;;4981504;28;20229;-68
2023/03/29 17:32:09;;;;;;;1.23;1.13;;;14.00;59.70;;;;;;4982731;28;20223;-67
2023/03/29 17:34:37;;;;;;;1.30;1.20;;;13.90;58.70;;;;;;4982197;28;20287;-68
2023/03/29 17:37:06;;;;;;;1.13;0.98;;;13.80;57.90;;;;;;4982287;28;20658;-67
2023/03/29 17:39:36;;;;;;;0.80;0.80;;;13.80;60.50;;;;;;4979358;28;20236;-68
2023/03/29 17:42:03;;;;;;;2.72;1.23;;;13.60;64.50;;;;;;4982974;28;20199;-65
2023/03/29 17:44:32;;;;;;;2.97;1.23;;;13.50;64.70;;;;;;4982926;28;20207;-65
2023/03/29 17:46:59;;;;;;;1.75;1.08;;;13.40;67.70;;;;;;4983702;28;20738;-65
2023/03/29 17:49:26;;;;;;;1.02;1.02;;;13.40;68.40;;;;;;4983847;28;20228;-66
2023/03/29 17:51:53;;;;;;;1.70;1.00;;;13.30;73.30;;;;;;4982486;28;20211;-68
2023/03/29 17:54:21;;;;;;;2.03;1.27;;;13.10;77.60;;;;;;4981825;28;20199;-65
2023/03/29 17:56:49;;;;;;;1.45;1.33;;;13.10;82.40;;;;;;4981864;28;20254;-63
2023/03/29 17:59:16;;;;;;;0.80;0.80;;;13.00;87.00;;;;;;4982161;28;20305;-65
2023/03/29 18:01:44;;;;;;;0.93;0.93;;;12.80;90.40;;;;;;4981468;28;20667;-66
2023/03/29 18:04:10;;;;;;;0.80;0.80;;;12.70;93.10;;;;;;4977752;28;20207;-66
2023/03/29 18:06:37;;;;;;;0.70;0.70;;;12.60;95.40;;;;;;4976929;28;20210;-65
2023/03/29 18:09:04;;;;;;;1.13;0.90;;;12.60;96.50;;;;;;4977063;28;20564;-66
2023/03/29 18:11:32;;;;;;;0.93;0.75;;;12.50;97.20;;;;;;4976716;28;20698;-65
2023/03/29 18:14:00;;;;;;;1.58;1.10;;;12.30;98.30;;;;;;4977238;28;20211;-65
2023/03/29 18:16:27;;;;;;;1.00;1.00;;;12.30;98.80;;;;;;4976795;28;20192;-66
2023/03/29 18:18:53;;;;;;;0.90;0.90;;;12.20;98.50;;;;;;4976846;28;20230;-65
2023/03/29 18:21:20;;;;;;;0.85;0.80;;;12.20;98.80;;;;;;4977065;28;20199;-64
2023/03/29 18:23:50;;;;;;;1.98;1.17;;;12.10;99.30;;;;;;4977001;28;20203;-64
2023/03/29 18:26:17;;;;;;;1.10;1.10;;;12.00;99.90;;;;;;4977213;28;20208;-65
2023/03/29 18:28:46;;;;;;;1.13;0.82;;;12.00;99.90;;;;;;4976749;28;20223;-65
2023/03/29 18:31:13;;;;;;;0.85;0.85;;;11.90;99.90;;;;;;4976845;28;20239;-66
2023/03/29 18:33:40;;;;;;;1.63;1.20;;;11.90;99.90;;;;;;4977056;28;20199;-66
2023/03/29 18:36:08;;;;;;;1.75;1.65;;;11.80;99.90;;;;;;4977020;28;20199;-66
2023/03/29 18:38:35;;;;;;;1.38;0.93;;;11.70;99.90;;;;;;4977127;28;20223;-66
2023/03/29 18:41:03;;;;;;;1.58;1.17;;;11.70;99.90;;;;;;4976915;28;20204;-66
2023/03/29 18:43:32;;;;;;;2.70;2.13;;;11.60;99.90;;;;;;4976666;28;20203;-66
2023/03/29 18:46:00;;;;;;;2.10;1.90;;;11.50;99.90;;;;;;4976479;28;20230;-66
2023/03/29 18:48:27;;;;;;;1.75;1.65;;;11.50;99.90;;;;;;4976439;28;20274;-67
2023/03/29 18:50:56;;;;;;;2.05;1.85;;;11.40;99.90;;;;;;4976526;28;20215;-66
2023/03/29 18:53:22;;;;;;;1.77;1.42;;;11.40;99.90;;;;;;4975798;28;20698;-66
2023/03/29 18:55:49;;;;;;;1.30;1.20;;;11.40;99.90;;;;;;4976004;28;20679;-66
2023/03/29 18:58:16;;;;;;;2.95;1.73;;;11.40;99.90;;;;;;4976281;28;20203;-66
2023/03/29 19:00:43;;;;;;;1.58;1.30;;;11.30;99.90;;;;;;4976256;28;20231;-66
2023/03/29 19:03:11;;;;;;;1.80;1.45;;;11.30;99.90;;;;;;4976248;28;20187;-65
2023/03/29 19:05:38;;;;;;;3.22;1.40;;;11.30;99.90;;;;;;4976135;28;20574;-65
2023/03/29 19:08:07;;;;;;;3.45;1.42;;;11.30;99.90;;;;;;4976123;28;20627;-65
2023/03/29 19:10:35;;;;;;;3.85;1.77;;;11.30;99.90;;;;;;4976323;28;20219;-65
2023/03/29 19:13:01;;;;;;;6.78;3.47;;;11.30;99.90;;;;;;4976865;28;20330;-66
2023/03/29 19:15:28;;;;;;;4.43;2.35;;;11.30;99.90;;;;;;4975995;28;20701;-65
2023/03/29 19:17:55;;;;;;;1.95;1.50;;;11.30;99.90;;;;;;4983284;28;20207;-65
2023/03/29 19:20:24;;;;;;;4.55;1.70;;;11.40;99.90;;;;;;4976302;28;20231;-66
2023/03/29 19:22:51;;;;;;;2.30;2.10;;;11.40;99.90;;;;;;4976172;28;20195;-66
2023/03/29 19:25:17;;;;;;;3.72;1.92;;;11.40;99.90;;;;;;4976501;28;20203;-65
2023/03/29 19:27:45;;;;;;;1.70;1.60;;;11.40;99.90;;;;;;4976042;28;20211;-64
2023/03/29 19:30:12;;;;;;;2.80;1.65;;;11.50;99.90;;;;;;4975830;28;20252;-65
2023/03/29 19:32:39;;;;;;;2.20;1.90;;;11.40;99.90;;;;;;4975835;28;20223;-66
2023/03/29 19:35:08;;;;;;;4.32;2.10;;;11.50;99.90;;;;;;4975896;28;20218;-66
2023/03/29 19:37:36;;;;;;;3.42;1.70;;;11.50;99.90;;;;;;4975747;28;20207;-66
2023/03/29 19:40:05;;;;;;;2.15;1.42;;;11.50;99.90;;;;;;4975848;28;20223;-66
2023/03/29 19:42:34;;;;;;;1.40;1.30;;;11.60;98.40;;;;;;4975534;28;20643;-66
2023/03/29 19:45:01;;;;;;;1.20;1.10;;;11.70;95.50;;;;;;4975538;28;20258;-66
2023/03/29 19:47:28;;;;;;;1.35;1.23;;;11.80;93.60;;;;;;4975376;28;20207;-66
2023/03/29 19:49:56;;;;;;;5.03;2.53;;;11.90;93.20;;;;;;4975706;28;20231;-66
2023/03/29 19:52:23;;;;;;;4.18;2.20;;;12.00;92.80;;;;;;4975339;28;20718;-67
2023/03/29 19:54:51;;;;;;;2.50;2.30;;;12.00;91.40;;;;;;4975194;28;20207;-66
2023/03/29 19:57:18;;;;;;;4.00;2.20;;;12.10;91.40;;;;;;4975376;28;20203;-67
2023/03/29 19:59:45;;;;;;;4.47;1.88;;;12.10;91.40;;;;;;4974586;28;20598;-67
2023/03/29 20:02:12;;;;;;;4.38;2.58;;;12.10;92.40;;;;;;4975333;28;20250;-67
2023/03/29 20:04:39;;;;;;;1.95;1.80;;;12.00;95.00;;;;;;4975463;28;20204;-67
2023/03/29 20:07:06;;;;;;;3.08;1.83;;;12.00;97.50;;;;;;4975474;28;20278;-66
2023/03/29 20:09:33;;;;;;;1.85;1.45;;;11.90;98.40;;;;;;4976827;28;20223;-66
2023/03/29 20:12:01;;;;;;;1.67;1.58;;;11.80;99.90;;;;;;4980419;28;20565;-66
2023/03/29 20:14:28;;;;;;;2.55;1.33;;;11.80;99.90;;;;;;4974879;28;20199;-66
2023/03/29 20:16:55;;;;;;;2.55;1.60;;;11.70;99.90;;;;;;4976621;28;20206;-66
2023/03/29 20:19:24;;;;;;;1.13;1.10;;;11.60;99.90;;;;;;4982167;28;20231;-66
2023/03/29 20:21:53;;;;;;;3.20;1.20;;;11.50;99.90;;;;;;4977464;28;20544;-66
2023/03/29 20:24:20;;;;;;;3.88;1.20;;;11.40;99.90;;;;;;4977767;28;20698;-67
2023/03/29 20:26:47;;;;;;;1.58;1.10;;;11.40;99.90;;;;;;4980370;28;20570;-69
2023/03/29 20:29:16;;;;;;;0.88;0.88;;;11.30;99.90;;;;;;4979722;28;20258;-68
2023/03/29 20:31:43;;;;;;;3.80;1.27;;;11.20;99.90;;;;;;4980051;28;20749;-69
2023/03/29 20:34:10;;;;;;;0.75;0.73;;;11.20;99.90;;;;;;4975865;28;20314;-69
2023/03/29 20:36:39;;;;;;;1.25;0.80;;;11.10;99.90;;;;;;4977512;28;20214;-70
2023/03/29 20:39:06;;;;;;;1.23;1.10;;;11.00;99.90;;;;;;4983317;28;20227;-67
2023/03/29 20:41:37;;;;;;;1.30;1.05;;;11.00;99.90;;;;;;4982818;28;20289;-69
2023/03/29 20:44:04;;;;;;;1.10;1.10;;;10.90;99.90;;;;;;4981917;28;20298;-69
2023/03/29 20:46:36;;;;;;;1.15;1.02;;;10.90;99.90;;;;;;4975213;28;20211;-69
2023/03/29 20:49:06;;;;;;;1.48;1.13;;;10.80;99.90;;;;;;4975984;28;20251;-67
2023/03/29 20:51:33;;;;;;;2.88;1.25;;;10.80;99.90;;;;;;4974822;28;20208;-68
2023/03/29 20:54:04;;;;;;;2.42;1.15;;;10.70;99.90;;;;;;4976023;28;20234;-68
2023/03/29 20:56:32;;;;;;;1.10;1.08;;;10.70;99.90;;;;;;4974664;28;20195;-67
2023/03/29 20:58:58;;;;;;;2.25;0.93;;;10.70;99.90;;;;;;4974952;28;20314;-67
2023/03/29 21:01:26;;;;;;;2.90;1.15;;;10.70;99.90;;;;;;4974696;28;20211;-68
2023/03/29 21:03:54;;;;;;;1.75;1.00;;;10.60;99.90;;;;;;4975003;28;20246;-68
2023/03/29 21:06:23;;;;;;;2.42;0.93;;;10.60;99.90;;;;;;4975616;28;20207;-67
2023/03/29 21:08:50;;;;;;;3.45;1.25;;;10.60;99.90;;;;;;4974762;28;20246;-66
2023/03/29 21:11:17;;;;;;;1.08;0.95;;;10.50;99.90;;;;;;4975160;28;20210;-66
2023/03/29 21:13:44;;;;;;;5.00;1.00;;;10.50;99.90;;;;;;4977617;28;20698;-67
2023/03/29 21:16:11;;;;;;;1.15;1.00;;;10.50;99.90;;;;;;4977857;28;20211;-68
2023/03/29 21:18:39;;;;;;;0.90;0.90;;;10.50;99.90;;;;;;4977681;28;20229;-68
2023/03/29 21:21:07;;;;;;;3.08;1.00;;;10.50;99.90;;;;;;4977640;28;20203;-68
2023/03/29 21:23:34;;;;;;;0.70;0.70;;;10.40;99.90;;;;;;4977580;28;20207;-68
2023/03/29 21:26:01;;;;;;;2.30;1.00;;;10.40;99.90;;;;;;4977752;28;20205;-68
2023/03/29 21:28:28;;;;;;;1.50;1.00;;;10.40;99.90;;;;;;4977758;28;20250;-68
2023/03/29 21:30:55;;;;;;;2.45;0.70;;;10.40;99.90;;;;;;4977731;28;20206;-66
2023/03/29 21:33:21;;;;;;;2.42;1.00;;;10.40;99.90;;;;;;4977237;28;20220;-66
2023/03/29 21:35:48;;;;;;;0.70;0.70;;;10.40;99.90;;;;;;4977243;28;20667;-66
2023/03/29 21:38:17;;;;;;;1.05;1.02;;;10.40;99.90;;;;;;4977438;28;20599;-66